sensor_id;sensor_type;location;lat;lon;timestamp;pressure;altitude;pressure_sealevel;temperature;humidity
78675;BME280;67990;59.826;30.108;2023-04-25T00:00:34;100710.81;;;9.26;74.63
78675;BME280;67990;59.826;30.108;2023-04-25T00:03:01;100710.09;;;9.24;75.31
78675;BME280;67990;59.826;30.108;2023-04-25T00:05:29;100707.16;;;9.17;75.51
78675;BME280;67990;59.826;30.108;2023-04-25T00:07:57;100709.06;;;9.15;75.93
78675;BME280;67990;59.826;30.108;2023-04-25T00:10:24;100703.03;;;9.04;77.19
78675;BME280;67990;59.826;30.108;2023-04-25T00:12:51;100706.81;;;9.11;77.47
78675;BME280;67990;59.826;30.108;2023-04-25T00:15:18;100710.03;;;9.14;76.81
78675;BME280;67990;59.826;30.108;2023-04-25T00:20:50;100708.50;;;9.12;76.75
78675;BME280;67990;59.826;30.108;2023-04-25T00:23:17;100703.81;;;9.15;76.30
78675;BME280;67990;59.826;30.108;2023-04-25T00:25:44;100702.34;;;9.02;75.06
78675;BME280;67990;59.826;30.108;2023-04-25T00:28:12;100703.47;;;8.88;74.32
78675;BME280;67990;59.826;30.108;2023-04-25T00:30:56;100704.56;;;8.75;76.22
78675;BME280;67990;59.826;30.108;2023-04-25T00:33:25;100703.66;;;8.65;76.63
78675;BME280;67990;59.826;30.108;2023-04-25T00:35:52;100702.81;;;8.64;76.37
78675;BME280;67990;59.826;30.108;2023-04-25T00:38:19;100697.91;;;8.71;76.68
78675;BME280;67990;59.826;30.108;2023-04-25T00:40:46;100700.41;;;8.72;76.42
78675;BME280;67990;59.826;30.108;2023-04-25T00:43:51;100705.16;;;8.78;77.36
78675;BME280;67990;59.826;30.108;2023-04-25T00:46:18;100704.91;;;8.81;76.06
78675;BME280;67990;59.826;30.108;2023-04-25T00:48:47;100701.25;;;8.73;75.31
78675;BME280;67990;59.826;30.108;2023-04-25T00:51:50;100702.69;;;8.66;75.39
78675;BME280;67990;59.826;30.108;2023-04-25T00:54:17;100707.94;;;8.66;75.21
78675;BME280;67990;59.826;30.108;2023-04-25T00:57:03;100705.94;;;8.58;74.33
78675;BME280;67990;59.826;30.108;2023-04-25T01:02:17;100707.94;;;8.55;74.60
78675;BME280;67990;59.826;30.108;2023-04-25T01:04:46;100702.47;;;8.47;75.39
78675;BME280;67990;59.826;30.108;2023-04-25T01:07:33;100705.09;;;8.47;74.79
78675;BME280;67990;59.826;30.108;2023-04-25T01:10:01;100701.66;;;8.35;74.35
78675;BME280;67990;59.826;30.108;2023-04-25T01:12:29;100694.66;;;8.25;75.12
78675;BME280;67990;59.826;30.108;2023-04-25T01:15:15;100695.97;;;8.30;75.18
78675;BME280;67990;59.826;30.108;2023-04-25T01:17:42;100695.84;;;8.32;74.56
78675;BME280;67990;59.826;30.108;2023-04-25T01:20:11;100700.13;;;8.22;74.87
78675;BME280;67990;59.826;30.108;2023-04-25T01:22:42;100700.88;;;8.24;74.82
78675;BME280;67990;59.826;30.108;2023-04-25T01:25:09;100690.47;;;8.44;74.14
78675;BME280;67990;59.826;30.108;2023-04-25T01:27:37;100712.06;;;8.79;72.71
78675;BME280;67990;59.826;30.108;2023-04-25T01:30:06;100695.25;;;9.13;71.03
78675;BME280;67990;59.826;30.108;2023-04-25T01:32:35;100705.38;;;9.38;70.00
78675;BME280;67990;59.826;30.108;2023-04-25T01:35:05;100695.28;;;9.54;68.72
78675;BME280;67990;59.826;30.108;2023-04-25T01:37:35;100697.69;;;9.67;68.20
78675;BME280;67990;59.826;30.108;2023-04-25T01:40:05;100700.13;;;9.79;67.10
78675;BME280;67990;59.826;30.108;2023-04-25T01:42:34;100693.84;;;9.91;65.99
78675;BME280;67990;59.826;30.108;2023-04-25T01:50:51;100696.75;;;9.98;65.26
78675;BME280;67990;59.826;30.108;2023-04-25T01:53:18;100700.34;;;9.97;65.00
78675;BME280;67990;59.826;30.108;2023-04-25T01:55:47;100692.56;;;10.06;64.09
78675;BME280;67990;59.826;30.108;2023-04-25T01:58:17;100692.16;;;10.11;63.73
78675;BME280;67990;59.826;30.108;2023-04-25T02:01:05;100690.66;;;10.18;63.10
78675;BME280;67990;59.826;30.108;2023-04-25T02:03:39;100693.84;;;10.21;63.11
78675;BME280;67990;59.826;30.108;2023-04-25T02:09:16;100687.03;;;10.09;62.87
78675;BME280;67990;59.826;30.108;2023-04-25T02:11:50;100691.13;;;10.02;62.58
78675;BME280;67990;59.826;30.108;2023-04-25T02:14:35;100684.44;;;9.89;62.60
78675;BME280;67990;59.826;30.108;2023-04-25T02:17:15;100689.16;;;9.95;61.80
78675;BME280;67990;59.826;30.108;2023-04-25T02:20:01;100686.34;;;10.07;61.27
78675;BME280;67990;59.826;30.108;2023-04-25T02:22:48;100692.31;;;10.19;60.90
78675;BME280;67990;59.826;30.108;2023-04-25T02:28:02;100687.91;;;10.29;60.28
78675;BME280;67990;59.826;30.108;2023-04-25T02:30:48;100690.72;;;10.37;59.66
78675;BME280;67990;59.826;30.108;2023-04-25T02:33:33;100691.84;;;10.44;59.41
78675;BME280;67990;59.826;30.108;2023-04-25T02:36:18;100694.25;;;10.56;58.84
78675;BME280;67990;59.826;30.108;2023-04-25T02:41:30;100702.00;;;10.77;58.25
78675;BME280;67990;59.826;30.108;2023-04-25T02:43:59;100692.03;;;10.80;58.01
78675;BME280;67990;59.826;30.108;2023-04-25T02:46:26;100694.56;;;10.91;57.65
78675;BME280;67990;59.826;30.108;2023-04-25T02:49:11;100690.28;;;11.00;57.35
78675;BME280;67990;59.826;30.108;2023-04-25T02:51:38;100690.56;;;11.06;56.77
78675;BME280;67990;59.826;30.108;2023-04-25T02:57:08;100688.34;;;11.21;56.04
78675;BME280;67990;59.826;30.108;2023-04-25T02:59:39;100687.22;;;11.33;55.96
78675;BME280;67990;59.826;30.108;2023-04-25T03:02:23;100683.47;;;11.35;55.30
78675;BME280;67990;59.826;30.108;2023-04-25T03:04:50;100681.66;;;11.36;55.17
78675;BME280;67990;59.826;30.108;2023-04-25T03:07:35;100685.13;;;11.46;55.01
78675;BME280;67990;59.826;30.108;2023-04-25T03:10:20;100687.19;;;11.52;54.60
78675;BME280;67990;59.826;30.108;2023-04-25T03:12:47;100692.16;;;11.55;54.38
78675;BME280;67990;59.826;30.108;2023-04-25T03:15:34;100695.09;;;11.62;53.88
78675;BME280;67990;59.826;30.108;2023-04-25T03:18:02;100691.22;;;11.66;53.92
78675;BME280;67990;59.826;30.108;2023-04-25T03:20:48;100698.38;;;11.73;53.82
78675;BME280;67990;59.826;30.108;2023-04-25T03:23:33;100694.22;;;11.71;53.55
78675;BME280;67990;59.826;30.108;2023-04-25T03:26:37;100695.47;;;11.76;53.60
78675;BME280;67990;59.826;30.108;2023-04-25T03:29:22;100702.97;;;11.81;53.41
78675;BME280;67990;59.826;30.108;2023-04-25T03:31:54;100702.25;;;11.79;53.60
78675;BME280;67990;59.826;30.108;2023-04-25T03:34:21;100701.28;;;11.80;53.57
78675;BME280;67990;59.826;30.108;2023-04-25T03:36:48;100702.38;;;11.87;52.92
78675;BME280;67990;59.826;30.108;2023-04-25T03:39:15;100702.47;;;11.95;52.49
78675;BME280;67990;59.826;30.108;2023-04-25T03:41:47;100702.34;;;11.96;52.87
78675;BME280;67990;59.826;30.108;2023-04-25T03:44:14;100703.25;;;12.05;51.84
78675;BME280;67990;59.826;30.108;2023-04-25T03:46:41;100700.59;;;12.14;51.26
78675;BME280;67990;59.826;30.108;2023-04-25T03:49:10;100699.72;;;12.23;50.76
78675;BME280;67990;59.826;30.108;2023-04-25T03:52:07;100690.13;;;12.32;50.50
78675;BME280;67990;59.826;30.108;2023-04-25T03:54:38;100700.34;;;12.44;50.25
78675;BME280;67990;59.826;30.108;2023-04-25T03:57:15;100707.38;;;12.53;50.29
78675;BME280;67990;59.826;30.108;2023-04-25T03:59:43;100705.94;;;12.59;49.85
78675;BME280;67990;59.826;30.108;2023-04-25T04:02:12;100708.41;;;12.60;49.66
78675;BME280;67990;59.826;30.108;2023-04-25T04:07:28;100708.91;;;12.73;49.83
78675;BME280;67990;59.826;30.108;2023-04-25T04:09:59;100704.44;;;12.74;49.50
78675;BME280;67990;59.826;30.108;2023-04-25T04:12:31;100710.31;;;12.68;49.80
78675;BME280;67990;59.826;30.108;2023-04-25T04:14:59;100709.88;;;12.72;50.14
78675;BME280;67990;59.826;30.108;2023-04-25T04:17:26;100711.22;;;12.76;49.72
78675;BME280;67990;59.826;30.108;2023-04-25T04:19:55;100708.81;;;12.83;48.79
78675;BME280;67990;59.826;30.108;2023-04-25T04:22:22;100716.81;;;12.91;48.90
78675;BME280;67990;59.826;30.108;2023-04-25T04:24:52;100704.19;;;12.94;48.57
78675;BME280;67990;59.826;30.108;2023-04-25T04:27:32;100711.88;;;13.05;48.25
78675;BME280;67990;59.826;30.108;2023-04-25T04:30:26;100704.75;;;13.15;47.84
78675;BME280;67990;59.826;30.108;2023-04-25T04:32:59;100707.38;;;13.15;47.86
78675;BME280;67990;59.826;30.108;2023-04-25T04:38:17;100707.53;;;13.31;47.70
78675;BME280;67990;59.826;30.108;2023-04-25T04:41:04;100710.44;;;13.46;47.63
78675;BME280;67990;59.826;30.108;2023-04-25T04:43:48;100704.41;;;13.53;47.49
78675;BME280;67990;59.826;30.108;2023-04-25T04:46:34;100707.09;;;13.61;46.98
78675;BME280;67990;59.826;30.108;2023-04-25T04:49:29;100711.59;;;13.69;46.93
78675;BME280;67990;59.826;30.108;2023-04-25T04:52:09;100704.78;;;13.84;46.68
78675;BME280;67990;59.826;30.108;2023-04-25T04:57:49;100705.63;;;14.18;45.25
78675;BME280;67990;59.826;30.108;2023-04-25T05:00:35;100703.94;;;14.34;45.04
78675;BME280;67990;59.826;30.108;2023-04-25T05:03:11;100708.09;;;14.45;44.62
78675;BME280;67990;59.826;30.108;2023-04-25T05:06:26;100699.22;;;14.62;43.92
78675;BME280;67990;59.826;30.108;2023-04-25T05:09:16;100707.53;;;14.83;43.20
78675;BME280;67990;59.826;30.108;2023-04-25T05:12:03;100705.59;;;15.01;42.78
78675;BME280;67990;59.826;30.108;2023-04-25T05:14:49;100704.59;;;15.10;42.28
78675;BME280;67990;59.826;30.108;2023-04-25T05:17:43;100703.81;;;15.25;41.71
78675;BME280;67990;59.826;30.108;2023-04-25T05:20:39;100705.34;;;15.44;41.15
78675;BME280;67990;59.826;30.108;2023-04-25T05:23:45;100695.06;;;15.57;41.17
78675;BME280;67990;59.826;30.108;2023-04-25T05:27:01;100703.44;;;15.92;40.88
78675;BME280;67990;59.826;30.108;2023-04-25T05:29:38;100701.41;;;16.02;40.33
78675;BME280;67990;59.826;30.108;2023-04-25T05:32:27;100707.03;;;16.07;39.77
78675;BME280;67990;59.826;30.108;2023-04-25T05:37:59;100701.97;;;16.36;39.48
78675;BME280;67990;59.826;30.108;2023-04-25T05:40:44;100705.34;;;16.69;39.42
78675;BME280;67990;59.826;30.108;2023-04-25T05:43:26;100706.56;;;16.59;38.84
78675;BME280;67990;59.826;30.108;2023-04-25T05:46:01;100699.91;;;16.63;38.28
78675;BME280;67990;59.826;30.108;2023-04-25T05:49:05;100700.56;;;16.87;39.39
78675;BME280;67990;59.826;30.108;2023-04-25T05:52:09;100700.31;;;17.27;37.70
78675;BME280;67990;59.826;30.108;2023-04-25T05:55:00;100692.91;;;17.60;37.63
78675;BME280;67990;59.826;30.108;2023-04-25T05:57:29;100698.75;;;17.92;37.09
78675;BME280;67990;59.826;30.108;2023-04-25T05:59:57;100697.56;;;18.24;36.98
78675;BME280;67990;59.826;30.108;2023-04-25T06:02:46;100702.41;;;18.99;35.50
78675;BME280;67990;59.826;30.108;2023-04-25T06:05:14;100696.91;;;19.07;35.03
78675;BME280;67990;59.826;30.108;2023-04-25T06:08:00;100696.31;;;19.05;34.66
78675;BME280;67990;59.826;30.108;2023-04-25T06:10:27;100705.44;;;19.59;34.29
78675;BME280;67990;59.826;30.108;2023-04-25T06:12:54;100698.28;;;19.87;33.72
78675;BME280;67990;59.826;30.108;2023-04-25T06:15:24;100695.63;;;20.21;33.81
78675;BME280;67990;59.826;30.108;2023-04-25T06:20:36;100687.00;;;21.46;31.42
78675;BME280;67990;59.826;30.108;2023-04-25T06:23:03;100687.41;;;22.96;29.41
78675;BME280;67990;59.826;30.108;2023-04-25T06:25:48;100682.78;;;23.41;26.79
78675;BME280;67990;59.826;30.108;2023-04-25T06:28:15;100680.81;;;24.21;26.65
78675;BME280;67990;59.826;30.108;2023-04-25T06:30:44;100685.84;;;25.88;24.15
78675;BME280;67990;59.826;30.108;2023-04-25T06:33:29;100683.75;;;26.14;22.67
78675;BME280;67990;59.826;30.108;2023-04-25T06:35:57;100680.50;;;26.63;23.07
78675;BME280;67990;59.826;30.108;2023-04-25T06:38:42;100677.16;;;27.45;21.96
78675;BME280;67990;59.826;30.108;2023-04-25T06:41:10;100674.06;;;27.53;21.12
78675;BME280;67990;59.826;30.108;2023-04-25T06:43:37;100681.47;;;26.85;21.57
78675;BME280;67990;59.826;30.108;2023-04-25T06:46:25;100673.88;;;26.31;21.90
78675;BME280;67990;59.826;30.108;2023-04-25T06:48:53;100679.41;;;26.24;22.11
78675;BME280;67990;59.826;30.108;2023-04-25T06:51:40;100671.59;;;27.68;20.85
78675;BME280;67990;59.826;30.108;2023-04-25T06:54:26;100669.22;;;29.22;19.41
78675;BME280;67990;59.826;30.108;2023-04-25T07:00:52;100658.91;;;30.39;16.68
78675;BME280;67990;59.826;30.108;2023-04-25T07:03:38;100662.13;;;30.31;16.14
78675;BME280;67990;59.826;30.108;2023-04-25T07:06:24;100672.22;;;29.93;17.41
78675;BME280;67990;59.826;30.108;2023-04-25T07:08:53;100668.59;;;29.73;16.90
78675;BME280;67990;59.826;30.108;2023-04-25T07:11:21;100668.06;;;30.17;16.44
78675;BME280;67990;59.826;30.108;2023-04-25T07:13:48;100657.19;;;30.84;16.16
78675;BME280;67990;59.826;30.108;2023-04-25T07:19:02;100671.94;;;31.33;15.18
78675;BME280;67990;59.826;30.108;2023-04-25T07:21:48;100663.19;;;31.16;14.34
78675;BME280;67990;59.826;30.108;2023-04-25T07:24:15;100669.69;;;30.85;14.47
78675;BME280;67990;59.826;30.108;2023-04-25T07:26:45;100658.16;;;30.58;14.69
78675;BME280;67990;59.826;30.108;2023-04-25T07:29:41;100660.28;;;30.46;14.37
78675;BME280;67990;59.826;30.108;2023-04-25T07:34:55;100659.13;;;31.09;14.21
78675;BME280;67990;59.826;30.108;2023-04-25T07:37:41;100662.38;;;30.19;13.61
78675;BME280;67990;59.826;30.108;2023-04-25T07:40:12;100664.94;;;30.51;13.78
78675;BME280;67990;59.826;30.108;2023-04-25T07:42:45;100662.25;;;30.61;13.85
78675;BME280;67990;59.826;30.108;2023-04-25T07:48:03;100650.13;;;30.83;13.50
78675;BME280;67990;59.826;30.108;2023-04-25T07:50:35;100663.22;;;30.25;13.22
78675;BME280;67990;59.826;30.108;2023-04-25T07:53:21;100656.53;;;30.57;14.05
78675;BME280;67990;59.826;30.108;2023-04-25T07:55:53;100653.56;;;30.49;14.68
78675;BME280;67990;59.826;30.108;2023-04-25T07:58:21;100648.38;;;30.47;13.18
78675;BME280;67990;59.826;30.108;2023-04-25T08:00:51;100655.75;;;30.57;13.44
78675;BME280;67990;59.826;30.108;2023-04-25T08:03:38;100659.88;;;30.69;13.55
78675;BME280;67990;59.826;30.108;2023-04-25T08:06:12;100656.78;;;30.46;13.50
78675;BME280;67990;59.826;30.108;2023-04-25T08:08:50;100654.09;;;29.99;13.75
78675;BME280;67990;59.826;30.108;2023-04-25T08:11:19;100663.31;;;30.50;12.95
78675;BME280;67990;59.826;30.108;2023-04-25T08:13:47;100657.38;;;30.63;12.47
78675;BME280;67990;59.826;30.108;2023-04-25T08:16:50;100653.59;;;30.02;13.39
78675;BME280;67990;59.826;30.108;2023-04-25T08:19:19;100655.22;;;30.03;13.93
78675;BME280;67990;59.826;30.108;2023-04-25T08:21:48;100666.69;;;30.82;12.97
78675;BME280;67990;59.826;30.108;2023-04-25T08:24:23;100664.47;;;30.12;13.22
78675;BME280;67990;59.826;30.108;2023-04-25T08:26:51;100658.59;;;30.25;12.70
78675;BME280;67990;59.826;30.108;2023-04-25T08:29:37;100667.84;;;29.87;12.76
78675;BME280;67990;59.826;30.108;2023-04-25T08:32:04;100668.06;;;29.13;13.28
78675;BME280;67990;59.826;30.108;2023-04-25T08:34:34;100663.47;;;29.81;13.15
78675;BME280;67990;59.826;30.108;2023-04-25T08:37:04;100661.63;;;29.87;13.43
78675;BME280;67990;59.826;30.108;2023-04-25T08:39:49;100656.69;;;30.21;13.89
78675;BME280;67990;59.826;30.108;2023-04-25T08:42:37;100660.81;;;28.97;12.66
78675;BME280;67990;59.826;30.108;2023-04-25T08:45:06;100659.84;;;28.55;13.26
78675;BME280;67990;59.826;30.108;2023-04-25T08:47:38;100661.78;;;28.81;13.76
78675;BME280;67990;59.826;30.108;2023-04-25T08:50:24;100657.72;;;28.57;13.73
78675;BME280;67990;59.826;30.108;2023-04-25T08:52:56;100655.81;;;29.37;14.18
78675;BME280;67990;59.826;30.108;2023-04-25T08:55:27;100652.25;;;29.63;13.77
78675;BME280;67990;59.826;30.108;2023-04-25T08:57:59;100659.63;;;29.41;13.39
78675;BME280;67990;59.826;30.108;2023-04-25T09:00:28;100654.22;;;29.41;13.47
78675;BME280;67990;59.826;30.108;2023-04-25T09:02:56;100652.13;;;29.89;13.09
78675;BME280;67990;59.826;30.108;2023-04-25T09:05:28;100651.09;;;28.96;13.43
78675;BME280;67990;59.826;30.108;2023-04-25T09:10:43;100651.94;;;28.48;13.77
78675;BME280;67990;59.826;30.108;2023-04-25T09:13:28;100656.44;;;28.64;14.34
78675;BME280;67990;59.826;30.108;2023-04-25T09:19:21;100653.25;;;28.94;13.88
78675;BME280;67990;59.826;30.108;2023-04-25T09:21:50;100634.81;;;28.64;13.38
78675;BME280;67990;59.826;30.108;2023-04-25T09:24:19;100643.28;;;28.46;13.88
78675;BME280;67990;59.826;30.108;2023-04-25T09:26:57;100654.84;;;28.90;14.45
78675;BME280;67990;59.826;30.108;2023-04-25T09:29:29;100646.59;;;29.38;13.71
78675;BME280;67990;59.826;30.108;2023-04-25T09:32:17;100648.50;;;28.36;13.90
78675;BME280;67990;59.826;30.108;2023-04-25T09:34:47;100641.19;;;27.94;14.69
78675;BME280;67990;59.826;30.108;2023-04-25T09:37:33;100649.44;;;27.49;14.88
78675;BME280;67990;59.826;30.108;2023-04-25T09:40:20;100646.97;;;27.48;15.17
78675;BME280;67990;59.826;30.108;2023-04-25T09:43:18;100645.91;;;27.32;15.26
78675;BME280;67990;59.826;30.108;2023-04-25T09:45:47;100648.13;;;26.23;16.37
78675;BME280;67990;59.826;30.108;2023-04-25T09:48:17;100650.34;;;25.34;17.65
78675;BME280;67990;59.826;30.108;2023-04-25T09:51:03;100656.88;;;26.30;16.66
78675;BME280;67990;59.826;30.108;2023-04-25T09:53:32;100662.91;;;25.74;17.79
78675;BME280;67990;59.826;30.108;2023-04-25T09:56:19;100658.97;;;25.24;18.44
78675;BME280;67990;59.826;30.108;2023-04-25T10:04:34;100659.78;;;24.18;18.90
78675;BME280;67990;59.826;30.108;2023-04-25T10:07:06;100653.13;;;24.86;18.61
78675;BME280;67990;59.826;30.108;2023-04-25T10:09:37;100653.91;;;25.80;17.52
78675;BME280;67990;59.826;30.108;2023-04-25T10:12:07;100644.28;;;26.19;17.00
78675;BME280;67990;59.826;30.108;2023-04-25T10:14:34;100656.91;;;25.38;17.53
78675;BME280;67990;59.826;30.108;2023-04-25T10:17:02;100655.53;;;25.81;17.02
78675;BME280;67990;59.826;30.108;2023-04-25T10:19:29;100639.00;;;26.24;17.15
78675;BME280;67990;59.826;30.108;2023-04-25T10:22:06;100652.88;;;26.84;16.70
78675;BME280;67990;59.826;30.108;2023-04-25T10:24:52;100656.56;;;26.66;16.40
78675;BME280;67990;59.826;30.108;2023-04-25T10:27:21;100658.13;;;26.51;15.77
78675;BME280;67990;59.826;30.108;2023-04-25T10:30:00;100655.34;;;26.74;16.12
78675;BME280;67990;59.826;30.108;2023-04-25T10:35:33;100659.03;;;25.82;16.48
78675;BME280;67990;59.826;30.108;2023-04-25T10:38:03;100666.41;;;25.63;16.55
78675;BME280;67990;59.826;30.108;2023-04-25T10:43:37;100667.66;;;24.67;17.46
78675;BME280;67990;59.826;30.108;2023-04-25T10:49:09;100672.28;;;23.08;18.70
78675;BME280;67990;59.826;30.108;2023-04-25T10:52:10;100677.41;;;23.16;18.81
78675;BME280;67990;59.826;30.108;2023-04-25T10:54:56;100671.13;;;23.29;18.47
78675;BME280;67990;59.826;30.108;2023-04-25T10:57:28;100667.59;;;23.35;18.86
78675;BME280;67990;59.826;30.108;2023-04-25T11:00:05;100672.88;;;23.17;19.50
78675;BME280;67990;59.826;30.108;2023-04-25T11:02:37;100670.81;;;23.12;19.78
78675;BME280;67990;59.826;30.108;2023-04-25T11:05:06;100665.84;;;23.16;19.74
78675;BME280;67990;59.826;30.108;2023-04-25T11:07:45;100664.19;;;23.15;19.45
78675;BME280;67990;59.826;30.108;2023-04-25T11:10:16;100667.69;;;23.46;18.28
78675;BME280;67990;59.826;30.108;2023-04-25T11:12:44;100670.22;;;23.41;18.69
78675;BME280;67990;59.826;30.108;2023-04-25T11:17:58;100669.81;;;23.07;19.29
78675;BME280;67990;59.826;30.108;2023-04-25T11:20:44;100666.94;;;23.08;19.09
78675;BME280;67990;59.826;30.108;2023-04-25T11:23:29;100679.75;;;23.06;19.71
78675;BME280;67990;59.826;30.108;2023-04-25T11:25:57;100672.81;;;22.92;18.77
78675;BME280;67990;59.826;30.108;2023-04-25T11:28:45;100664.50;;;22.63;19.39
78675;BME280;67990;59.826;30.108;2023-04-25T11:31:14;100669.69;;;22.58;19.48
78675;BME280;67990;59.826;30.108;2023-04-25T11:33:41;100662.66;;;22.63;19.71
78675;BME280;67990;59.826;30.108;2023-04-25T11:36:09;100664.69;;;22.74;19.44
78675;BME280;67990;59.826;30.108;2023-04-25T11:38:37;100662.78;;;23.12;19.30
78675;BME280;67990;59.826;30.108;2023-04-25T11:41:04;100667.78;;;23.58;19.20
78675;BME280;67990;59.826;30.108;2023-04-25T11:43:31;100654.28;;;23.46;18.87
78675;BME280;67990;59.826;30.108;2023-04-25T11:45:59;100655.50;;;23.50;19.04
78675;BME280;67990;59.826;30.108;2023-04-25T11:48:28;100647.13;;;23.09;19.12
78675;BME280;67990;59.826;30.108;2023-04-25T11:51:22;100659.31;;;22.74;19.49
78675;BME280;67990;59.826;30.108;2023-04-25T11:53:49;100651.78;;;22.58;19.25
78675;BME280;67990;59.826;30.108;2023-04-25T11:56:17;100666.22;;;22.57;19.39
78675;BME280;67990;59.826;30.108;2023-04-25T11:59:03;100664.19;;;22.40;19.74
78675;BME280;67990;59.826;30.108;2023-04-25T12:02:07;100654.97;;;22.80;19.56
78675;BME280;67990;59.826;30.108;2023-04-25T12:04:35;100651.59;;;22.91;18.83
78675;BME280;67990;59.826;30.108;2023-04-25T12:07:04;100653.50;;;22.77;19.13
78675;BME280;67990;59.826;30.108;2023-04-25T12:09:51;100652.75;;;22.70;19.25
78675;BME280;67990;59.826;30.108;2023-04-25T12:12:20;100653.25;;;22.54;19.33
78675;BME280;67990;59.826;30.108;2023-04-25T12:15:09;100651.28;;;22.24;19.93
78675;BME280;67990;59.826;30.108;2023-04-25T12:17:37;100654.16;;;22.22;20.21
78675;BME280;67990;59.826;30.108;2023-04-25T12:20:13;100650.44;;;22.23;20.20
78675;BME280;67990;59.826;30.108;2023-04-25T12:22:41;100643.84;;;22.32;20.13
78675;BME280;67990;59.826;30.108;2023-04-25T12:25:11;100639.44;;;22.44;20.19
78675;BME280;67990;59.826;30.108;2023-04-25T12:28:09;100644.78;;;22.57;20.47
78675;BME280;67990;59.826;30.108;2023-04-25T12:30:57;100641.28;;;22.57;20.68
78675;BME280;67990;59.826;30.108;2023-04-25T12:33:43;100650.44;;;22.23;20.50
78675;BME280;67990;59.826;30.108;2023-04-25T12:36:14;100642.41;;;22.23;20.39
78675;BME280;67990;59.826;30.108;2023-04-25T12:38:42;100635.38;;;22.35;20.44
78675;BME280;67990;59.826;30.108;2023-04-25T12:41:09;100634.16;;;22.31;20.56
78675;BME280;67990;59.826;30.108;2023-04-25T12:43:36;100629.19;;;22.48;20.42
78675;BME280;67990;59.826;30.108;2023-04-25T12:46:03;100625.22;;;22.57;20.55
78675;BME280;67990;59.826;30.108;2023-04-25T12:48:31;100631.56;;;22.62;20.26
78675;BME280;67990;59.826;30.108;2023-04-25T12:50:58;100631.31;;;22.70;20.24
78675;BME280;67990;59.826;30.108;2023-04-25T12:53:45;100624.25;;;22.82;19.39
78675;BME280;67990;59.826;30.108;2023-04-25T12:56:31;100633.38;;;22.68;19.58
78675;BME280;67990;59.826;30.108;2023-04-25T12:58:58;100634.41;;;22.67;19.33
78675;BME280;67990;59.826;30.108;2023-04-25T13:01:44;100630.78;;;22.55;19.74
78675;BME280;67990;59.826;30.108;2023-04-25T13:04:11;100625.50;;;22.36;20.41
78675;BME280;67990;59.826;30.108;2023-04-25T13:06:38;100631.50;;;22.25;20.21
78675;BME280;67990;59.826;30.108;2023-04-25T13:09:06;100619.31;;;22.35;19.97
78675;BME280;67990;59.826;30.108;2023-04-25T13:11:34;100618.72;;;22.33;19.78
78675;BME280;67990;59.826;30.108;2023-04-25T13:14:01;100613.31;;;22.40;20.24
78675;BME280;67990;59.826;30.108;2023-04-25T13:16:28;100611.84;;;22.44;20.06
78675;BME280;67990;59.826;30.108;2023-04-25T13:19:13;100618.00;;;22.44;20.17
78675;BME280;67990;59.826;30.108;2023-04-25T13:21:40;100611.03;;;22.43;20.06
78675;BME280;67990;59.826;30.108;2023-04-25T13:24:08;100618.28;;;22.36;20.40
78675;BME280;67990;59.826;30.108;2023-04-25T13:32:08;100610.22;;;22.49;20.58
78675;BME280;67990;59.826;30.108;2023-04-25T13:34:35;100616.81;;;22.47;20.00
78675;BME280;67990;59.826;30.108;2023-04-25T13:37:02;100606.91;;;22.47;19.96
78675;BME280;67990;59.826;30.108;2023-04-25T13:39:48;100604.63;;;22.57;19.54
78675;BME280;67990;59.826;30.108;2023-04-25T13:42:15;100606.28;;;22.45;19.81
78675;BME280;67990;59.826;30.108;2023-04-25T13:44:42;100597.31;;;22.27;20.10
78675;BME280;67990;59.826;30.108;2023-04-25T13:47:09;100601.44;;;22.29;19.74
78675;BME280;67990;59.826;30.108;2023-04-25T13:49:37;100592.34;;;22.30;19.84
78675;BME280;67990;59.826;30.108;2023-04-25T13:52:04;100592.28;;;22.43;19.67
78675;BME280;67990;59.826;30.108;2023-04-25T13:57:19;100598.69;;;22.49;19.59
78675;BME280;67990;59.826;30.108;2023-04-25T13:59:46;100598.09;;;22.40;19.83
78675;BME280;67990;59.826;30.108;2023-04-25T14:02:13;100591.03;;;22.52;19.80
78675;BME280;67990;59.826;30.108;2023-04-25T14:04:41;100588.13;;;22.54;19.82
78675;BME280;67990;59.826;30.108;2023-04-25T14:07:26;100601.63;;;22.72;19.58
78675;BME280;67990;59.826;30.108;2023-04-25T14:09:54;100595.75;;;22.57;19.39
78675;BME280;67990;59.826;30.108;2023-04-25T14:12:24;100596.00;;;22.42;19.52
78675;BME280;67990;59.826;30.108;2023-04-25T14:20:22;100591.84;;;22.02;20.29
78675;BME280;67990;59.826;30.108;2023-04-25T14:22:50;100589.75;;;22.17;20.48
78675;BME280;67990;59.826;30.108;2023-04-25T14:25:17;100595.66;;;22.32;20.19
78675;BME280;67990;59.826;30.108;2023-04-25T14:30:50;100579.56;;;22.39;20.43
78675;BME280;67990;59.826;30.108;2023-04-25T14:33:17;100579.81;;;22.31;20.31
78675;BME280;67990;59.826;30.108;2023-04-25T14:35:45;100580.06;;;22.16;19.93
78675;BME280;67990;59.826;30.108;2023-04-25T14:38:30;100574.50;;;22.18;20.30
78675;BME280;67990;59.826;30.108;2023-04-25T14:41:16;100579.25;;;22.16;20.27
78675;BME280;67990;59.826;30.108;2023-04-25T14:44:02;100573.13;;;22.02;20.69
78675;BME280;67990;59.826;30.108;2023-04-25T14:46:48;100577.94;;;21.87;20.76
78675;BME280;67990;59.826;30.108;2023-04-25T14:49:17;100575.50;;;21.73;20.32
78675;BME280;67990;59.826;30.108;2023-04-25T14:54:30;100566.66;;;21.59;20.99